sensor_id;sensor_type;location;lat;lon;timestamp;temperature;humidity
73121;DHT22;61307;49.628;-1.624;2023-02-28T00:02:26;17.00;33.00
73121;DHT22;61307;49.628;-1.624;2023-02-28T00:04:53;16.90;32.90
73121;DHT22;61307;49.628;-1.624;2023-02-28T00:07:26;16.90;32.90
73121;DHT22;61307;49.628;-1.624;2023-02-28T00:09:54;16.90;32.90
73121;DHT22;61307;49.628;-1.624;2023-02-28T00:12:21;16.90;33.00
73121;DHT22;61307;49.628;-1.624;2023-02-28T00:14:48;16.90;33.00
73121;DHT22;61307;49.628;-1.624;2023-02-28T00:17:17;16.90;33.00
73121;DHT22;61307;49.628;-1.624;2023-02-28T00:19:47;16.90;33.00
73121;DHT22;61307;49.628;-1.624;2023-02-28T00:22:14;16.90;33.00
73121;DHT22;61307;49.628;-1.624;2023-02-28T00:24:42;16.90;33.00
73121;DHT22;61307;49.628;-1.624;2023-02-28T00:27:09;16.90;33.10
73121;DHT22;61307;49.628;-1.624;2023-02-28T00:29:36;16.90;33.00
73121;DHT22;61307;49.628;-1.624;2023-02-28T00:32:03;16.90;33.10
73121;DHT22;61307;49.628;-1.624;2023-02-28T00:34:32;16.90;33.10
73121;DHT22;61307;49.628;-1.624;2023-02-28T00:37:04;16.90;33.10
73121;DHT22;61307;49.628;-1.624;2023-02-28T00:39:33;16.80;33.00
73121;DHT22;61307;49.628;-1.624;2023-02-28T00:42:01;16.80;33.00
73121;DHT22;61307;49.628;-1.624;2023-02-28T00:44:29;16.80;33.10
73121;DHT22;61307;49.628;-1.624;2023-02-28T00:46:56;16.90;33.10
73121;DHT22;61307;49.628;-1.624;2023-02-28T00:49:24;16.80;33.00
73121;DHT22;61307;49.628;-1.624;2023-02-28T00:51:53;16.80;33.00
73121;DHT22;61307;49.628;-1.624;2023-02-28T00:54:21;16.80;33.00
73121;DHT22;61307;49.628;-1.624;2023-02-28T00:56:48;16.80;33.00
73121;DHT22;61307;49.628;-1.624;2023-02-28T00:59:17;16.80;33.00
73121;DHT22;61307;49.628;-1.624;2023-02-28T01:01:45;16.80;33.00
73121;DHT22;61307;49.628;-1.624;2023-02-28T01:04:12;16.80;33.00
73121;DHT22;61307;49.628;-1.624;2023-02-28T01:06:40;16.80;33.00
73121;DHT22;61307;49.628;-1.624;2023-02-28T01:09:09;16.80;33.00
73121;DHT22;61307;49.628;-1.624;2023-02-28T01:11:37;16.70;32.90
73121;DHT22;61307;49.628;-1.624;2023-02-28T01:14:04;16.80;33.00
73121;DHT22;61307;49.628;-1.624;2023-02-28T01:16:31;16.70;32.90
73121;DHT22;61307;49.628;-1.624;2023-02-28T01:18:59;16.70;32.90
73121;DHT22;61307;49.628;-1.624;2023-02-28T01:21:26;16.80;33.00
73121;DHT22;61307;49.628;-1.624;2023-02-28T01:23:56;16.70;32.90
73121;DHT22;61307;49.628;-1.624;2023-02-28T01:26:25;16.70;32.90
73121;DHT22;61307;49.628;-1.624;2023-02-28T01:28:53;16.70;32.90
73121;DHT22;61307;49.628;-1.624;2023-02-28T01:31:21;16.70;32.90
73121;DHT22;61307;49.628;-1.624;2023-02-28T01:33:48;16.70;32.90
73121;DHT22;61307;49.628;-1.624;2023-02-28T01:36:19;16.70;32.90
73121;DHT22;61307;49.628;-1.624;2023-02-28T01:38:47;16.70;33.60
73121;DHT22;61307;49.628;-1.624;2023-02-28T01:41:16;16.70;32.90
73121;DHT22;61307;49.628;-1.624;2023-02-28T01:43:58;16.70;32.90
73121;DHT22;61307;49.628;-1.624;2023-02-28T01:46:29;16.70;32.90
73121;DHT22;61307;49.628;-1.624;2023-02-28T01:49:02;16.60;32.80
73121;DHT22;61307;49.628;-1.624;2023-02-28T01:51:35;16.70;32.90
73121;DHT22;61307;49.628;-1.624;2023-02-28T01:54:08;16.60;32.80
73121;DHT22;61307;49.628;-1.624;2023-02-28T01:56:41;16.70;32.90
73121;DHT22;61307;49.628;-1.624;2023-02-28T01:59:12;16.60;32.80
73121;DHT22;61307;49.628;-1.624;2023-02-28T02:01:40;16.60;32.80
73121;DHT22;61307;49.628;-1.624;2023-02-28T02:04:07;16.60;32.80
73121;DHT22;61307;49.628;-1.624;2023-02-28T02:06:37;16.60;32.80
73121;DHT22;61307;49.628;-1.624;2023-02-28T02:09:04;16.60;32.80
73121;DHT22;61307;49.628;-1.624;2023-02-28T02:11:32;16.60;32.80
73121;DHT22;61307;49.628;-1.624;2023-02-28T02:14:27;16.60;32.80
73121;DHT22;61307;49.628;-1.624;2023-02-28T02:17:10;16.60;32.80
73121;DHT22;61307;49.628;-1.624;2023-02-28T02:23:20;16.60;32.80
73121;DHT22;61307;49.628;-1.624;2023-02-28T02:25:54;16.60;32.90
73121;DHT22;61307;49.628;-1.624;2023-02-28T02:29:03;16.50;32.80
73121;DHT22;61307;49.628;-1.624;2023-02-28T02:32:18;16.50;32.80
73121;DHT22;61307;49.628;-1.624;2023-02-28T02:34:58;16.50;32.80
73121;DHT22;61307;49.628;-1.624;2023-02-28T02:37:32;16.50;32.80
73121;DHT22;61307;49.628;-1.624;2023-02-28T02:40:10;16.50;32.80
73121;DHT22;61307;49.628;-1.624;2023-02-28T02:42:44;16.50;32.80
73121;DHT22;61307;49.628;-1.624;2023-02-28T02:45:16;16.50;32.80
73121;DHT22;61307;49.628;-1.624;2023-02-28T02:47:45;16.50;32.80
73121;DHT22;61307;49.628;-1.624;2023-02-28T02:50:18;16.50;32.80
73121;DHT22;61307;49.628;-1.624;2023-02-28T02:52:50;16.50;32.80
73121;DHT22;61307;49.628;-1.624;2023-02-28T02:55:18;16.50;32.80
73121;DHT22;61307;49.628;-1.624;2023-02-28T02:57:50;16.50;32.80
73121;DHT22;61307;49.628;-1.624;2023-02-28T03:00:22;16.50;32.80
73121;DHT22;61307;49.628;-1.624;2023-02-28T03:02:52;16.40;32.70
73121;DHT22;61307;49.628;-1.624;2023-02-28T03:05:25;16.50;32.80
73121;DHT22;61307;49.628;-1.624;2023-02-28T03:07:52;16.50;32.80
73121;DHT22;61307;49.628;-1.624;2023-02-28T03:10:37;16.50;32.80
73121;DHT22;61307;49.628;-1.624;2023-02-28T03:13:37;16.50;32.80
73121;DHT22;61307;49.628;-1.624;2023-02-28T03:16:26;16.40;32.80
73121;DHT22;61307;49.628;-1.624;2023-02-28T03:19:06;16.50;32.80
73121;DHT22;61307;49.628;-1.624;2023-02-28T03:21:44;16.50;32.80
73121;DHT22;61307;49.628;-1.624;2023-02-28T03:24:19;16.50;32.90
73121;DHT22;61307;49.628;-1.624;2023-02-28T03:26:54;16.50;32.80
73121;DHT22;61307;49.628;-1.624;2023-02-28T03:29:25;16.40;32.80
73121;DHT22;61307;49.628;-1.624;2023-02-28T03:31:59;16.40;32.80
73121;DHT22;61307;49.628;-1.624;2023-02-28T03:34:33;16.40;32.80
73121;DHT22;61307;49.628;-1.624;2023-02-28T03:37:07;16.40;32.80
73121;DHT22;61307;49.628;-1.624;2023-02-28T03:39:38;16.40;32.80
73121;DHT22;61307;49.628;-1.624;2023-02-28T03:42:09;16.40;32.80
73121;DHT22;61307;49.628;-1.624;2023-02-28T03:44:40;16.40;32.80
73121;DHT22;61307;49.628;-1.624;2023-02-28T03:47:10;16.40;32.70
73121;DHT22;61307;49.628;-1.624;2023-02-28T03:49:42;16.40;32.80
73121;DHT22;61307;49.628;-1.624;2023-02-28T03:52:14;16.40;32.80
73121;DHT22;61307;49.628;-1.624;2023-02-28T03:54:46;16.40;32.80
73121;DHT22;61307;49.628;-1.624;2023-02-28T03:57:20;16.40;32.80
73121;DHT22;61307;49.628;-1.624;2023-02-28T03:59:54;16.40;32.70
73121;DHT22;61307;49.628;-1.624;2023-02-28T04:02:23;16.40;32.80
73121;DHT22;61307;49.628;-1.624;2023-02-28T04:04:50;16.30;32.60
73121;DHT22;61307;49.628;-1.624;2023-02-28T04:07:19;16.40;32.70
73121;DHT22;61307;49.628;-1.624;2023-02-28T04:09:46;16.40;32.70
73121;DHT22;61307;49.628;-1.624;2023-02-28T04:12:13;16.40;32.70
73121;DHT22;61307;49.628;-1.624;2023-02-28T04:14:40;16.40;32.80
73121;DHT22;61307;49.628;-1.624;2023-02-28T04:17:07;16.30;32.70
73121;DHT22;61307;49.628;-1.624;2023-02-28T04:19:34;16.30;32.70
73121;DHT22;61307;49.628;-1.624;2023-02-28T04:22:01;16.40;32.80
73121;DHT22;61307;49.628;-1.624;2023-02-28T04:24:30;16.30;33.30
73121;DHT22;61307;49.628;-1.624;2023-02-28T04:26:58;16.30;32.70
73121;DHT22;61307;49.628;-1.624;2023-02-28T04:29:26;16.30;32.70
73121;DHT22;61307;49.628;-1.624;2023-02-28T04:31:54;16.30;32.70
73121;DHT22;61307;49.628;-1.624;2023-02-28T04:34:23;16.30;32.70
73121;DHT22;61307;49.628;-1.624;2023-02-28T04:36:51;16.30;32.60
73121;DHT22;61307;49.628;-1.624;2023-02-28T04:39:20;16.30;32.60
73121;DHT22;61307;49.628;-1.624;2023-02-28T04:41:49;16.30;32.60
73121;DHT22;61307;49.628;-1.624;2023-02-28T04:44:17;16.30;32.60
73121;DHT22;61307;49.628;-1.624;2023-02-28T04:46:44;16.30;32.60
73121;DHT22;61307;49.628;-1.624;2023-02-28T04:49:11;16.30;32.60
73121;DHT22;61307;49.628;-1.624;2023-02-28T04:51:39;16.30;32.60
73121;DHT22;61307;49.628;-1.624;2023-02-28T04:54:06;16.30;32.70
73121;DHT22;61307;49.628;-1.624;2023-02-28T04:56:34;16.30;32.60
73121;DHT22;61307;49.628;-1.624;2023-02-28T04:59:02;16.30;32.60
73121;DHT22;61307;49.628;-1.624;2023-02-28T05:01:31;16.30;32.60
73121;DHT22;61307;49.628;-1.624;2023-02-28T05:04:01;16.20;32.50
73121;DHT22;61307;49.628;-1.624;2023-02-28T05:06:30;16.30;32.60
73121;DHT22;61307;49.628;-1.624;2023-02-28T05:08:57;16.30;32.60
73121;DHT22;61307;49.628;-1.624;2023-02-28T05:11:28;16.30;32.60
73121;DHT22;61307;49.628;-1.624;2023-02-28T05:13:59;16.20;32.50
73121;DHT22;61307;49.628;-1.624;2023-02-28T05:16:28;16.30;32.60
73121;DHT22;61307;49.628;-1.624;2023-02-28T05:18:55;16.30;32.60
73121;DHT22;61307;49.628;-1.624;2023-02-28T05:21:27;16.20;32.50
73121;DHT22;61307;49.628;-1.624;2023-02-28T05:23:55;16.30;32.60
73121;DHT22;61307;49.628;-1.624;2023-02-28T05:26:23;16.20;32.60
73121;DHT22;61307;49.628;-1.624;2023-02-28T05:28:51;16.20;32.60
73121;DHT22;61307;49.628;-1.624;2023-02-28T05:31:18;16.20;32.60
73121;DHT22;61307;49.628;-1.624;2023-02-28T05:33:46;16.20;32.50
73121;DHT22;61307;49.628;-1.624;2023-02-28T05:36:14;16.20;32.60
73121;DHT22;61307;49.628;-1.624;2023-02-28T05:38:41;16.20;32.60
73121;DHT22;61307;49.628;-1.624;2023-02-28T05:41:09;16.20;32.50
73121;DHT22;61307;49.628;-1.624;2023-02-28T05:43:37;16.20;32.60
73121;DHT22;61307;49.628;-1.624;2023-02-28T05:46:05;16.20;32.60
73121;DHT22;61307;49.628;-1.624;2023-02-28T05:48:33;16.30;32.70
73121;DHT22;61307;49.628;-1.624;2023-02-28T05:51:02;16.30;32.70
73121;DHT22;61307;49.628;-1.624;2023-02-28T05:53:29;16.30;32.60
73121;DHT22;61307;49.628;-1.624;2023-02-28T05:55:57;16.30;32.60
73121;DHT22;61307;49.628;-1.624;2023-02-28T05:58:24;16.40;32.60
73121;DHT22;61307;49.628;-1.624;2023-02-28T06:00:56;16.40;32.60
73121;DHT22;61307;49.628;-1.624;2023-02-28T06:03:23;16.50;32.60
73121;DHT22;61307;49.628;-1.624;2023-02-28T06:05:51;16.50;32.60
73121;DHT22;61307;49.628;-1.624;2023-02-28T06:08:19;16.60;32.60
73121;DHT22;61307;49.628;-1.624;2023-02-28T06:10:46;16.70;32.60
73121;DHT22;61307;49.628;-1.624;2023-02-28T06:13:13;16.70;32.50
73121;DHT22;61307;49.628;-1.624;2023-02-28T06:15:40;16.80;32.50
73121;DHT22;61307;49.628;-1.624;2023-02-28T06:18:07;16.80;32.50
73121;DHT22;61307;49.628;-1.624;2023-02-28T06:20:34;16.90;32.50
73121;DHT22;61307;49.628;-1.624;2023-02-28T06:23:02;16.90;32.40
73121;DHT22;61307;49.628;-1.624;2023-02-28T06:25:30;17.00;32.50
73121;DHT22;61307;49.628;-1.624;2023-02-28T06:27:58;17.00;32.40
73121;DHT22;61307;49.628;-1.624;2023-02-28T06:30:25;17.10;33.10
73121;DHT22;61307;49.628;-1.624;2023-02-28T06:32:54;17.10;32.40
73121;DHT22;61307;49.628;-1.624;2023-02-28T06:35:21;17.10;32.30
73121;DHT22;61307;49.628;-1.624;2023-02-28T06:37:48;17.20;32.40
73121;DHT22;61307;49.628;-1.624;2023-02-28T06:40:16;17.20;32.30
73121;DHT22;61307;49.628;-1.624;2023-02-28T06:42:44;17.30;32.40
73121;DHT22;61307;49.628;-1.624;2023-02-28T06:45:12;17.30;32.30
73121;DHT22;61307;49.628;-1.624;2023-02-28T06:47:40;17.30;32.30
73121;DHT22;61307;49.628;-1.624;2023-02-28T06:50:09;17.40;32.30
73121;DHT22;61307;49.628;-1.624;2023-02-28T06:52:36;17.40;32.30
73121;DHT22;61307;49.628;-1.624;2023-02-28T06:55:04;17.50;32.40
73121;DHT22;61307;49.628;-1.624;2023-02-28T06:57:33;17.50;32.40
73121;DHT22;61307;49.628;-1.624;2023-02-28T07:00:05;17.50;32.30
73121;DHT22;61307;49.628;-1.624;2023-02-28T07:02:33;17.50;32.20
73121;DHT22;61307;49.628;-1.624;2023-02-28T07:05:01;17.60;32.30
73121;DHT22;61307;49.628;-1.624;2023-02-28T07:07:28;17.60;32.30
73121;DHT22;61307;49.628;-1.624;2023-02-28T07:09:55;17.60;32.20
73121;DHT22;61307;49.628;-1.624;2023-02-28T07:12:22;17.60;32.20
73121;DHT22;61307;49.628;-1.624;2023-02-28T07:14:49;17.60;32.20
73121;DHT22;61307;49.628;-1.624;2023-02-28T07:17:18;17.70;32.30
73121;DHT22;61307;49.628;-1.624;2023-02-28T07:19:45;17.70;32.40
73121;DHT22;61307;49.628;-1.624;2023-02-28T07:22:12;17.70;32.20
73121;DHT22;61307;49.628;-1.624;2023-02-28T07:24:39;17.80;32.30
73121;DHT22;61307;49.628;-1.624;2023-02-28T07:27:06;17.80;32.30
73121;DHT22;61307;49.628;-1.624;2023-02-28T07:29:33;17.80;32.30
73121;DHT22;61307;49.628;-1.624;2023-02-28T07:32:00;17.80;32.20
73121;DHT22;61307;49.628;-1.624;2023-02-28T07:34:29;17.90;32.30
73121;DHT22;61307;49.628;-1.624;2023-02-28T07:36:56;17.90;32.30
73121;DHT22;61307;49.628;-1.624;2023-02-28T07:39:23;17.90;32.30
73121;DHT22;61307;49.628;-1.624;2023-02-28T07:41:50;17.90;32.20
73121;DHT22;61307;49.628;-1.624;2023-02-28T07:44:17;17.90;32.30
73121;DHT22;61307;49.628;-1.624;2023-02-28T07:46:44;17.90;32.30
73121;DHT22;61307;49.628;-1.624;2023-02-28T07:49:11;18.00;32.40
73121;DHT22;61307;49.628;-1.624;2023-02-28T07:51:40;18.00;32.30
73121;DHT22;61307;49.628;-1.624;2023-02-28T07:54:07;18.00;32.30
73121;DHT22;61307;49.628;-1.624;2023-02-28T07:56:34;18.00;32.40
73121;DHT22;61307;49.628;-1.624;2023-02-28T07:59:01;18.00;32.40
73121;DHT22;61307;49.628;-1.624;2023-02-28T08:01:28;18.00;32.50
73121;DHT22;61307;49.628;-1.624;2023-02-28T08:03:55;18.00;32.70
73121;DHT22;61307;49.628;-1.624;2023-02-28T08:06:24;17.90;32.70
73121;DHT22;61307;49.628;-1.624;2023-02-28T08:08:53;17.90;32.70
73121;DHT22;61307;49.628;-1.624;2023-02-28T08:11:21;18.00;32.90
73121;DHT22;61307;49.628;-1.624;2023-02-28T08:13:48;18.00;32.90
73121;DHT22;61307;49.628;-1.624;2023-02-28T08:16:16;18.00;33.00
73121;DHT22;61307;49.628;-1.624;2023-02-28T08:18:48;18.00;32.90
73121;DHT22;61307;49.628;-1.624;2023-02-28T08:21:15;18.00;33.00
73121;DHT22;61307;49.628;-1.624;2023-02-28T08:23:42;18.00;33.10
73121;DHT22;61307;49.628;-1.624;2023-02-28T08:26:10;18.00;33.10
73121;DHT22;61307;49.628;-1.624;2023-02-28T08:28:38;18.10;33.20
73121;DHT22;61307;49.628;-1.624;2023-02-28T08:31:08;18.10;33.20
73121;DHT22;61307;49.628;-1.624;2023-02-28T08:33:36;18.10;33.20
73121;DHT22;61307;49.628;-1.624;2023-02-28T08:36:05;18.10;33.40
73121;DHT22;61307;49.628;-1.624;2023-02-28T08:38:32;18.10;33.50
73121;DHT22;61307;49.628;-1.624;2023-02-28T08:41:01;18.10;33.50
73121;DHT22;61307;49.628;-1.624;2023-02-28T08:43:30;18.10;33.60
73121;DHT22;61307;49.628;-1.624;2023-02-28T08:45:57;18.20;33.60
73121;DHT22;61307;49.628;-1.624;2023-02-28T08:48:25;18.10;33.50
73121;DHT22;61307;49.628;-1.624;2023-02-28T08:50:56;18.10;33.80
73121;DHT22;61307;49.628;-1.624;2023-02-28T08:53:23;18.10;33.70
73121;DHT22;61307;49.628;-1.624;2023-02-28T08:55:56;18.10;33.50
73121;DHT22;61307;49.628;-1.624;2023-02-28T08:58:23;18.20;33.60
73121;DHT22;61307;49.628;-1.624;2023-02-28T09:00:52;18.20;33.60
73121;DHT22;61307;49.628;-1.624;2023-02-28T09:03:20;18.20;33.50
73121;DHT22;61307;49.628;-1.624;2023-02-28T09:05:54;18.20;33.60
73121;DHT22;61307;49.628;-1.624;2023-02-28T09:08:22;18.20;33.60
73121;DHT22;61307;49.628;-1.624;2023-02-28T09:10:50;18.20;33.60
73121;DHT22;61307;49.628;-1.624;2023-02-28T09:13:17;18.20;33.60
73121;DHT22;61307;49.628;-1.624;2023-02-28T09:15:45;18.20;33.60
73121;DHT22;61307;49.628;-1.624;2023-02-28T09:18:13;18.20;33.60
73121;DHT22;61307;49.628;-1.624;2023-02-28T09:20:41;18.20;33.60
73121;DHT22;61307;49.628;-1.624;2023-02-28T09:23:09;18.20;33.60
73121;DHT22;61307;49.628;-1.624;2023-02-28T09:25:37;18.20;33.70
73121;DHT22;61307;49.628;-1.624;2023-02-28T09:28:04;18.20;33.70
73121;DHT22;61307;49.628;-1.624;2023-02-28T09:30:31;18.20;33.70
73121;DHT22;61307;49.628;-1.624;2023-02-28T09:32:59;18.20;33.70
73121;DHT22;61307;49.628;-1.624;2023-02-28T09:35:27;18.20;33.70
73121;DHT22;61307;49.628;-1.624;2023-02-28T09:37:56;18.20;33.90
73121;DHT22;61307;49.628;-1.624;2023-02-28T09:40:25;18.20;34.00
73121;DHT22;61307;49.628;-1.624;2023-02-28T09:42:54;18.20;34.00
73121;DHT22;61307;49.628;-1.624;2023-02-28T09:45:25;18.20;34.00
73121;DHT22;61307;49.628;-1.624;2023-02-28T09:47:57;18.20;34.00
73121;DHT22;61307;49.628;-1.624;2023-02-28T09:50:32;18.20;34.00
73121;DHT22;61307;49.628;-1.624;2023-02-28T09:53:02;18.20;34.00
73121;DHT22;61307;49.628;-1.624;2023-02-28T09:55:35;18.20;34.00
73121;DHT22;61307;49.628;-1.624;2023-02-28T09:58:04;18.20;34.00
73121;DHT22;61307;49.628;-1.624;2023-02-28T10:00:34;18.20;34.20
73121;DHT22;61307;49.628;-1.624;2023-02-28T10:03:21;18.20;34.40
73121;DHT22;61307;49.628;-1.624;2023-02-28T10:05:53;18.30;34.50
73121;DHT22;61307;49.628;-1.624;2023-02-28T10:08:25;18.30;34.90
73121;DHT22;61307;49.628;-1.624;2023-02-28T10:10:55;18.30;34.60
73121;DHT22;61307;49.628;-1.624;2023-02-28T10:13:28;18.30;34.60
73121;DHT22;61307;49.628;-1.624;2023-02-28T10:16:02;18.30;34.60
73121;DHT22;61307;49.628;-1.624;2023-02-28T10:18:35;18.40;34.60
73121;DHT22;61307;49.628;-1.624;2023-02-28T10:21:05;18.40;34.50
73121;DHT22;61307;49.628;-1.624;2023-02-28T10:23:35;18.40;34.60
73121;DHT22;61307;49.628;-1.624;2023-02-28T10:26:10;18.40;34.60
73121;DHT22;61307;49.628;-1.624;2023-02-28T10:28:38;18.40;34.60
73121;DHT22;61307;49.628;-1.624;2023-02-28T10:31:08;18.40;34.50
73121;DHT22;61307;49.628;-1.624;2023-02-28T10:33:38;18.50;34.60
73121;DHT22;61307;49.628;-1.624;2023-02-28T10:36:12;18.50;34.70
73121;DHT22;61307;49.628;-1.624;2023-02-28T10:38:40;18.50;34.70
73121;DHT22;61307;49.628;-1.624;2023-02-28T10:41:09;18.50;34.60
73121;DHT22;61307;49.628;-1.624;2023-02-28T10:43:37;18.50;34.50
73121;DHT22;61307;49.628;-1.624;2023-02-28T10:46:11;18.50;34.50
73121;DHT22;61307;49.628;-1.624;2023-02-28T10:48:42;18.50;35.20
73121;DHT22;61307;49.628;-1.624;2023-02-28T10:51:12;18.50;34.50
73121;DHT22;61307;49.628;-1.624;2023-02-28T10:53:48;18.50;34.50
73121;DHT22;61307;49.628;-1.624;2023-02-28T10:56:17;18.50;34.60
73121;DHT22;61307;49.628;-1.624;2023-02-28T10:58:53;18.50;34.50
73121;DHT22;61307;49.628;-1.624;2023-02-28T11:01:22;18.50;34.60
73121;DHT22;61307;49.628;-1.624;2023-02-28T11:03:50;18.50;34.60
73121;DHT22;61307;49.628;-1.624;2023-02-28T11:06:21;18.50;35.20
73121;DHT22;61307;49.628;-1.624;2023-02-28T11:08:52;18.50;34.60
73121;DHT22;61307;49.628;-1.624;2023-02-28T11:11:21;18.50;34.60
73121;DHT22;61307;49.628;-1.624;2023-02-28T11:13:52;18.60;34.80
73121;DHT22;61307;49.628;-1.624;2023-02-28T11:16:20;18.50;34.80
73121;DHT22;61307;49.628;-1.624;2023-02-28T11:18:49;18.50;35.10
73121;DHT22;61307;49.628;-1.624;2023-02-28T11:21:22;18.60;35.20
73121;DHT22;61307;49.628;-1.624;2023-02-28T11:23:51;18.60;35.20
73121;DHT22;61307;49.628;-1.624;2023-02-28T11:26:40;18.60;35.10
73121;DHT22;61307;49.628;-1.624;2023-02-28T11:29:12;18.60;35.00
73121;DHT22;61307;49.628;-1.624;2023-02-28T11:31:42;18.60;35.00
73121;DHT22;61307;49.628;-1.624;2023-02-28T11:34:24;18.60;34.90
73121;DHT22;61307;49.628;-1.624;2023-02-28T11:36:56;18.60;34.90
73121;DHT22;61307;49.628;-1.624;2023-02-28T11:39:25;18.70;35.00
73121;DHT22;61307;49.628;-1.624;2023-02-28T11:42:01;18.70;35.00
73121;DHT22;61307;49.628;-1.624;2023-02-28T11:44:47;18.70;34.90
73121;DHT22;61307;49.628;-1.624;2023-02-28T11:47:26;18.70;34.90
73121;DHT22;61307;49.628;-1.624;2023-02-28T11:50:10;18.70;34.90
73121;DHT22;61307;49.628;-1.624;2023-02-28T11:52:47;18.70;34.90
73121;DHT22;61307;49.628;-1.624;2023-02-28T11:55:19;18.70;34.80
73121;DHT22;61307;49.628;-1.624;2023-02-28T11:58:05;18.70;34.90
73121;DHT22;61307;49.628;-1.624;2023-02-28T12:00:50;18.80;35.00
73121;DHT22;61307;49.628;-1.624;2023-02-28T12:03:27;18.80;35.00
73121;DHT22;61307;49.628;-1.624;2023-02-28T12:06:03;18.80;34.90
73121;DHT22;61307;49.628;-1.624;2023-02-28T12:08:47;18.80;34.90
73121;DHT22;61307;49.628;-1.624;2023-02-28T12:11:23;18.80;34.90
73121;DHT22;61307;49.628;-1.624;2023-02-28T12:14:03;18.80;35.00
73121;DHT22;61307;49.628;-1.624;2023-02-28T12:16:41;18.80;35.00
73121;DHT22;61307;49.628;-1.624;2023-02-28T12:19:21;18.80;35.10
73121;DHT22;61307;49.628;-1.624;2023-02-28T12:22:12;18.90;35.20
73121;DHT22;61307;49.628;-1.624;2023-02-28T12:25:08;18.80;35.00
73121;DHT22;61307;49.628;-1.624;2023-02-28T12:27:43;18.90;35.10
73121;DHT22;61307;49.628;-1.624;2023-02-28T12:30:16;18.90;35.10
73121;DHT22;61307;49.628;-1.624;2023-02-28T12:32:47;18.90;35.00
73121;DHT22;61307;49.628;-1.624;2023-02-28T12:35:17;18.90;35.00
73121;DHT22;61307;49.628;-1.624;2023-02-28T12:37:49;18.90;35.00
73121;DHT22;61307;49.628;-1.624;2023-02-28T12:40:21;18.90;35.00
73121;DHT22;61307;49.628;-1.624;2023-02-28T12:42:51;18.90;35.00
73121;DHT22;61307;49.628;-1.624;2023-02-28T12:45:20;18.90;35.00
73121;DHT22;61307;49.628;-1.624;2023-02-28T12:47:52;19.00;35.00
73121;DHT22;61307;49.628;-1.624;2023-02-28T12:50:23;19.00;35.00
73121;DHT22;61307;49.628;-1.624;2023-02-28T12:52:55;19.00;35.00
73121;DHT22;61307;49.628;-1.624;2023-02-28T12:55:31;19.00;35.00
73121;DHT22;61307;49.628;-1.624;2023-02-28T12:58:10;19.00;35.10
73121;DHT22;61307;49.628;-1.624;2023-02-28T13:00:53;19.00;35.20
73121;DHT22;61307;49.628;-1.624;2023-02-28T13:06:34;19.10;35.40
73121;DHT22;61307;49.628;-1.624;2023-02-28T13:09:09;19.10;35.70
73121;DHT22;61307;49.628;-1.624;2023-02-28T13:11:43;19.10;35.60
73121;DHT22;61307;49.628;-1.624;2023-02-28T13:14:25;19.10;35.70
73121;DHT22;61307;49.628;-1.624;2023-02-28T13:17:02;19.10;35.70
73121;DHT22;61307;49.628;-1.624;2023-02-28T13:19:32;19.10;35.70
73121;DHT22;61307;49.628;-1.624;2023-02-28T13:22:04;19.10;35.70
73121;DHT22;61307;49.628;-1.624;2023-02-28T13:24:43;19.10;35.70
73121;DHT22;61307;49.628;-1.624;2023-02-28T13:27:34;19.10;35.70
73121;DHT22;61307;49.628;-1.624;2023-02-28T13:33:44;19.20;35.80
73121;DHT22;61307;49.628;-1.624;2023-02-28T13:36:32;19.20;36.30
73121;DHT22;61307;49.628;-1.624;2023-02-28T13:39:00;19.30;35.90
73121;DHT22;61307;49.628;-1.624;2023-02-28T13:41:47;19.30;35.80
73121;DHT22;61307;49.628;-1.624;2023-02-28T13:44:20;19.30;35.80
73121;DHT22;61307;49.628;-1.624;2023-02-28T13:47:21;19.30;35.80
73121;DHT22;61307;49.628;-1.624;2023-02-28T13:49:51;19.30;35.80
73121;DHT22;61307;49.628;-1.624;2023-02-28T13:52:21;19.30;35.80
73121;DHT22;61307;49.628;-1.624;2023-02-28T13:55:24;19.40;36.00
73121;DHT22;61307;49.628;-1.624;2023-02-28T13:58:05;19.40;35.90
73121;DHT22;61307;49.628;-1.624;2023-02-28T14:00:57;19.30;35.80
73121;DHT22;61307;49.628;-1.624;2023-02-28T14:03:44;19.40;35.80
73121;DHT22;61307;49.628;-1.624;2023-02-28T14:06:22;19.30;35.80
73121;DHT22;61307;49.628;-1.624;2023-02-28T14:08:54;19.40;35.90
73121;DHT22;61307;49.628;-1.624;2023-02-28T14:11:32;19.40;35.80
73121;DHT22;61307;49.628;-1.624;2023-02-28T14:14:00;19.40;35.70
73121;DHT22;61307;49.628;-1.624;2023-02-28T14:16:38;19.40;35.80
73121;DHT22;61307;49.628;-1.624;2023-02-28T14:19:11;19.40;35.90
73121;DHT22;61307;49.628;-1.624;2023-02-28T14:21:46;19.40;35.80
73121;DHT22;61307;49.628;-1.624;2023-02-28T14:24:55;19.40;35.80
73121;DHT22;61307;49.628;-1.624;2023-02-28T14:27:35;19.40;35.80
73121;DHT22;61307;49.628;-1.624;2023-02-28T14:33:18;19.50;35.80
73121;DHT22;61307;49.628;-1.624;2023-02-28T14:36:07;19.50;35.60
73121;DHT22;61307;49.628;-1.624;2023-02-28T14:38:37;19.50;35.70
73121;DHT22;61307;49.628;-1.624;2023-02-28T14:41:16;19.50;35.70
73121;DHT22;61307;49.628;-1.624;2023-02-28T14:43:53;19.50;35.60
73121;DHT22;61307;49.628;-1.624;2023-02-28T14:46:22;19.50;35.70
73121;DHT22;61307;49.628;-1.624;2023-02-28T14:48:51;19.60;35.70
73121;DHT22;61307;49.628;-1.624;2023-02-28T14:51:20;19.60;35.80
73121;DHT22;61307;49.628;-1.624;2023-02-28T14:53:50;19.60;35.80
73121;DHT22;61307;49.628;-1.624;2023-02-28T14:56:30;19.60;35.80
73121;DHT22;61307;49.628;-1.624;2023-02-28T14:58:59;19.50;35.70
73121;DHT22;61307;49.628;-1.624;2023-02-28T15:01:26;19.50;35.70
73121;DHT22;61307;49.628;-1.624;2023-02-28T15:04:03;19.50;36.00
73121;DHT22;61307;49.628;-1.624;2023-02-28T15:06:31;19.50;36.00
73121;DHT22;61307;49.628;-1.624;2023-02-28T15:09:10;19.50;36.00
73121;DHT22;61307;49.628;-1.624;2023-02-28T15:11:38;19.50;36.00
73121;DHT22;61307;49.628;-1.624;2023-02-28T15:14:06;19.50;35.90
73121;DHT22;61307;49.628;-1.624;2023-02-28T15:16:36;19.50;36.00
73121;DHT22;61307;49.628;-1.624;2023-02-28T15:19:13;19.50;36.00
73121;DHT22;61307;49.628;-1.624;2023-02-28T15:21:44;19.60;36.00
73121;DHT22;61307;49.628;-1.624;2023-02-28T15:24:17;19.60;36.10
73121;DHT22;61307;49.628;-1.624;2023-02-28T15:26:52;19.60;36.10
73121;DHT22;61307;49.628;-1.624;2023-02-28T15:29:23;19.70;36.10
73121;DHT22;61307;49.628;-1.624;2023-02-28T15:31:55;19.70;35.80
73121;DHT22;61307;49.628;-1.624;2023-02-28T15:34:30;19.70;35.80
73121;DHT22;61307;49.628;-1.624;2023-02-28T15:37:00;19.70;35.70
73121;DHT22;61307;49.628;-1.624;2023-02-28T15:39:28;19.70;35.60
73121;DHT22;61307;49.628;-1.624;2023-02-28T15:42:10;19.70;35.70
73121;DHT22;61307;49.628;-1.624;2023-02-28T15:44:37;19.70;35.80
73121;DHT22;61307;49.628;-1.624;2023-02-28T15:47:06;19.70;35.80
73121;DHT22;61307;49.628;-1.624;2023-02-28T15:49:45;19.70;35.70
73121;DHT22;61307;49.628;-1.624;2023-02-28T15:52:16;19.70;35.70
73121;DHT22;61307;49.628;-1.624;2023-02-28T15:54:45;19.70;35.60
73121;DHT22;61307;49.628;-1.624;2023-02-28T15:57:17;19.70;35.60